Time;durP1;ratioP1;P1;durP2;ratioP2;P2;SDS_P1;SDS_P2;PMS_P1;PMS_P2;Temp;Humidity;BMP_temperature;BMP_pressure;BME280_temperature;BME280_humidity;BME280_pressure;Samples;Min_cycle;Max_cycle;Signal;HPM_P1;HPM_P2
2022/12/21 00:01:09;;;;;;;30.13;22.00;;;7.30;99.90;;;;;;5050283;28;20208;-64
2022/12/21 00:03:38;;;;;;;29.98;21.42;;;7.30;99.90;;;;;;5050150;28;20201;-64
2022/12/21 00:06:07;;;;;;;27.10;20.55;;;7.40;99.90;;;;;;5051636;28;20204;-64
2022/12/21 00:08:36;;;;;;;30.10;22.58;;;7.40;99.90;;;;;;5052045;28;20204;-64
2022/12/21 00:11:05;;;;;;;34.83;22.15;;;7.40;99.90;;;;;;5051843;28;20208;-64
2022/12/21 00:13:34;;;;;;;27.90;20.95;;;7.40;99.90;;;;;;5052099;28;20553;-64
2022/12/21 00:16:04;;;;;;;26.58;20.70;;;7.40;99.90;;;;;;5051467;28;20582;-64
2022/12/21 00:18:33;;;;;;;29.38;21.27;;;7.50;99.90;;;;;;5055285;28;20257;-64
2022/12/21 00:21:04;;;;;;;26.33;21.58;;;7.50;99.90;;;;;;5054519;28;20215;-65
2022/12/21 00:23:33;;;;;;;26.65;20.80;;;7.50;99.90;;;;;;5055536;28;20226;-63
2022/12/21 00:26:03;;;;;;;28.77;20.55;;;7.50;99.90;;;;;;5055917;28;20205;-63
2022/12/21 00:28:32;;;;;;;24.92;21.50;;;7.50;99.90;;;;;;5055344;28;20212;-64
2022/12/21 00:31:06;;;;;;;26.95;21.23;;;7.50;99.90;;;;;;5055307;28;20200;-64
2022/12/21 00:33:34;;;;;;;29.48;20.60;;;7.60;99.90;;;;;;5055722;28;20192;-64
2022/12/21 00:36:02;;;;;;;26.77;18.80;;;7.60;99.90;;;;;;5055789;28;20216;-64
2022/12/21 00:38:30;;;;;;;24.35;20.85;;;7.60;99.90;;;;;;5057895;28;20275;-64
2022/12/21 00:41:02;;;;;;;28.60;21.13;;;7.70;99.90;;;;;;5055848;28;20209;-64
2022/12/21 00:43:31;;;;;;;25.33;19.52;;;7.70;99.90;;;;;;5054183;28;20193;-65
2022/12/21 00:46:01;;;;;;;28.35;18.08;;;7.70;99.90;;;;;;5055877;28;20196;-64
2022/12/21 00:48:30;;;;;;;25.75;19.33;;;7.80;99.90;;;;;;5063303;28;20200;-64
2022/12/21 00:51:04;;;;;;;27.08;19.23;;;7.80;99.90;;;;;;5075267;28;20208;-63
2022/12/21 00:53:32;;;;;;;26.90;19.13;;;7.80;99.90;;;;;;5074482;28;20210;-64
2022/12/21 00:56:03;;;;;;;24.45;18.83;;;7.70;99.90;;;;;;5069700;28;20216;-64
2022/12/21 00:58:32;;;;;;;24.75;18.88;;;7.80;99.90;;;;;;5064602;28;20232;-64
2022/12/21 01:01:05;;;;;;;23.42;19.17;;;7.80;99.90;;;;;;5064059;28;20643;-65
2022/12/21 01:03:33;;;;;;;26.80;19.55;;;7.80;99.90;;;;;;5071351;28;20192;-64
2022/12/21 01:06:01;;;;;;;25.83;19.48;;;7.80;99.90;;;;;;5074323;28;20575;-64
2022/12/21 01:08:29;;;;;;;26.48;19.10;;;7.80;99.90;;;;;;5073680;28;20675;-64
2022/12/21 01:10:58;;;;;;;28.10;19.67;;;7.80;99.90;;;;;;5072730;28;20204;-64
2022/12/21 01:13:28;;;;;;;24.60;19.15;;;7.80;99.90;;;;;;5055674;28;20204;-64
2022/12/21 01:15:56;;;;;;;27.92;20.35;;;7.80;99.90;;;;;;5064898;28;20220;-64
2022/12/21 01:18:25;;;;;;;24.88;19.10;;;7.80;99.90;;;;;;5072863;28;20218;-64
2022/12/21 01:20:55;;;;;;;26.45;18.10;;;7.80;99.90;;;;;;5071133;28;20200;-65
2022/12/21 01:23:24;;;;;;;27.95;20.65;;;7.80;99.90;;;;;;5062451;28;20220;-65
2022/12/21 01:25:52;;;;;;;27.20;19.60;;;7.80;99.90;;;;;;5074290;28;20683;-65
2022/12/21 01:28:21;;;;;;;31.70;21.05;;;7.90;99.90;;;;;;5061051;28;20213;-65
2022/12/21 01:30:50;;;;;;;24.95;20.23;;;7.90;99.90;;;;;;5053637;28;20551;-65
2022/12/21 01:33:20;;;;;;;25.30;20.20;;;7.90;99.90;;;;;;5056688;28;20205;-65
2022/12/21 01:35:49;;;;;;;26.55;19.75;;;7.90;99.90;;;;;;5052551;28;20209;-65
2022/12/21 01:38:17;;;;;;;33.47;21.27;;;7.90;99.90;;;;;;5054263;28;20209;-65
2022/12/21 01:40:45;;;;;;;33.15;20.40;;;7.90;99.90;;;;;;5067871;28;20191;-65
2022/12/21 01:43:18;;;;;;;27.98;20.38;;;7.90;99.90;;;;;;5073793;28;20204;-65
2022/12/21 01:45:52;;;;;;;27.55;21.20;;;8.00;99.90;;;;;;5072336;28;20189;-65
2022/12/21 01:48:20;;;;;;;31.40;20.98;;;7.90;99.90;;;;;;5074043;28;20202;-66
2022/12/21 01:50:55;;;;;;;30.27;21.15;;;7.90;99.90;;;;;;5073615;28;20719;-64
2022/12/21 01:53:25;;;;;;;34.03;23.58;;;7.90;99.90;;;;;;5073725;28;20183;-64
2022/12/21 01:55:57;;;;;;;25.85;20.17;;;8.00;99.90;;;;;;5073602;28;20223;-64
2022/12/21 01:58:29;;;;;;;30.42;20.92;;;8.00;99.90;;;;;;5072056;28;20246;-64
2022/12/21 02:01:01;;;;;;;29.90;23.30;;;8.00;99.90;;;;;;5072091;28;20198;-65
2022/12/21 02:03:33;;;;;;;29.55;21.13;;;8.00;99.90;;;;;;5071510;28;20188;-65
2022/12/21 02:06:06;;;;;;;33.92;22.35;;;8.00;99.90;;;;;;5072883;28;20188;-65
2022/12/21 02:08:34;;;;;;;30.90;22.38;;;8.00;99.90;;;;;;5074046;28;20265;-65
2022/12/21 02:11:04;;;;;;;32.72;22.45;;;8.00;99.90;;;;;;5072331;28;20208;-65
2022/12/21 02:13:32;;;;;;;28.33;21.75;;;8.00;99.90;;;;;;5073239;28;20209;-64
2022/12/21 02:16:19;;;;;;;28.83;21.65;;;8.00;99.90;;;;;;5069366;28;20219;-64
2022/12/21 02:19:41;;;;;;;30.00;21.38;;;8.00;99.90;;;;;;5052412;28;20244;-64
2022/12/21 02:22:17;;;;;;;31.23;22.15;;;8.00;99.90;;;;;;4973341;28;20705;-65
2022/12/21 02:25:30;;;;;;;27.80;21.52;;;8.10;99.90;;;;;;4973646;28;20195;-64
2022/12/21 02:28:23;;;;;;;30.85;20.13;;;8.10;99.90;;;;;;5032807;28;20201;-65
2022/12/21 02:31:08;;;;;;;28.65;21.27;;;8.10;99.90;;;;;;5044396;28;20694;-64
2022/12/21 02:33:53;;;;;;;36.22;21.23;;;8.20;99.90;;;;;;5057264;28;20648;-64
2022/12/21 02:36:30;;;;;;;32.75;22.55;;;8.20;99.90;;;;;;5056020;28;20206;-64
2022/12/21 02:39:08;;;;;;;30.70;21.50;;;8.20;99.90;;;;;;5071855;28;20661;-64
2022/12/21 02:41:48;;;;;;;34.40;22.05;;;8.20;99.90;;;;;;5071111;28;20187;-65
2022/12/21 02:44:24;;;;;;;30.15;21.33;;;8.20;99.90;;;;;;5072009;28;20188;-64
2022/12/21 02:47:06;;;;;;;33.33;21.27;;;8.20;99.90;;;;;;5071596;28;20198;-64
2022/12/21 02:49:42;;;;;;;33.50;21.05;;;8.20;99.90;;;;;;5059951;28;20188;-64
2022/12/21 02:52:18;;;;;;;28.30;20.70;;;8.20;99.90;;;;;;5052516;28;20211;-64
2022/12/21 02:54:46;;;;;;;36.42;20.45;;;8.30;99.90;;;;;;5053424;28;20195;-64
2022/12/21 02:57:14;;;;;;;29.10;20.90;;;8.30;99.90;;;;;;5051220;28;20216;-64
2022/12/21 02:59:49;;;;;;;28.88;20.50;;;8.30;99.90;;;;;;5050892;28;20243;-64
2022/12/21 03:02:41;;;;;;;31.38;21.15;;;8.30;99.90;;;;;;5050556;28;20198;-64
2022/12/21 03:05:38;;;;;;;36.85;23.60;;;8.40;99.90;;;;;;5051113;28;20524;-64
2022/12/21 03:08:18;;;;;;;27.33;20.95;;;8.40;99.90;;;;;;5054886;28;20200;-64
2022/12/21 03:10:58;;;;;;;35.90;24.27;;;8.40;99.90;;;;;;5072636;28;20192;-64
2022/12/21 03:13:35;;;;;;;79.57;53.60;;;8.40;99.90;;;;;;5072274;28;20192;-64
2022/12/21 03:16:12;;;;;;;61.67;42.45;;;8.40;99.90;;;;;;5055405;28;20212;-64
2022/12/21 03:18:56;;;;;;;239.77;160.13;;;8.40;99.90;;;;;;5072038;28;20202;-65
2022/12/21 03:21:31;;;;;;;87.88;61.63;;;8.40;99.90;;;;;;5071729;28;20232;-64
2022/12/21 03:24:05;;;;;;;76.38;55.97;;;8.40;99.90;;;;;;5056300;28;20744;-64
2022/12/21 03:26:37;;;;;;;42.65;31.80;;;8.40;99.90;;;;;;5053466;28;20218;-64
2022/12/21 03:29:07;;;;;;;50.55;36.83;;;8.40;99.90;;;;;;5059037;28;20193;-64
2022/12/21 03:31:39;;;;;;;34.45;24.40;;;8.50;99.90;;;;;;5072037;28;20196;-64
2022/12/21 03:34:15;;;;;;;71.28;51.78;;;8.50;99.90;;;;;;5055852;28;20231;-64
2022/12/21 03:36:48;;;;;;;57.58;36.95;;;8.50;99.90;;;;;;5058266;28;20666;-64
2022/12/21 03:39:20;;;;;;;45.38;31.55;;;8.50;99.90;;;;;;5056548;28;20200;-64
2022/12/21 03:41:52;;;;;;;31.63;21.67;;;8.50;99.90;;;;;;5052557;28;20541;-65
2022/12/21 03:44:34;;;;;;;32.67;25.08;;;8.50;99.90;;;;;;5052282;28;20201;-64
2022/12/21 03:47:05;;;;;;;38.50;28.85;;;8.50;99.90;;;;;;5055120;28;20549;-64
2022/12/21 03:49:38;;;;;;;50.58;34.63;;;8.50;99.90;;;;;;5071678;28;20256;-64
2022/12/21 03:52:10;;;;;;;37.42;26.83;;;8.50;99.90;;;;;;5072897;28;20184;-64
2022/12/21 03:54:44;;;;;;;35.05;23.15;;;8.60;99.90;;;;;;5060085;28;20192;-64
2022/12/21 03:57:12;;;;;;;32.60;23.05;;;8.60;99.90;;;;;;5056182;28;20253;-64
2022/12/21 03:59:44;;;;;;;33.00;24.45;;;8.60;99.90;;;;;;5055838;28;20302;-64
2022/12/21 04:02:17;;;;;;;36.53;30.58;;;8.60;99.90;;;;;;5070212;28;20565;-64
2022/12/21 04:04:50;;;;;;;27.73;20.67;;;8.60;99.90;;;;;;5073651;28;20626;-64
2022/12/21 04:07:24;;;;;;;24.95;18.42;;;8.70;99.90;;;;;;5062546;28;20196;-64
2022/12/21 04:09:57;;;;;;;29.40;17.95;;;8.70;99.90;;;;;;5075239;28;20570;-66
2022/12/21 04:12:37;;;;;;;28.58;17.10;;;8.70;99.90;;;;;;5070231;28;20664;-64
2022/12/21 04:15:09;;;;;;;23.63;17.83;;;8.70;99.90;;;;;;5058284;28;20203;-65
2022/12/21 04:17:40;;;;;;;24.50;16.30;;;8.70;99.90;;;;;;5074929;28;20222;-65
2022/12/21 04:20:11;;;;;;;23.35;17.60;;;8.70;99.90;;;;;;5068677;28;20547;-64
2022/12/21 04:28:21;;;;;;;25.25;15.13;;;8.70;99.90;;;;;;5025800;28;20201;-64
2022/12/21 04:30:50;;;;;;;25.20;16.42;;;8.80;99.90;;;;;;5070888;28;20196;-64
2022/12/21 04:33:19;;;;;;;25.58;15.77;;;8.80;99.90;;;;;;5073329;28;20199;-64
2022/12/21 04:38:37;;;;;;;21.05;15.15;;;8.80;99.90;;;;;;5066227;28;20253;-64
2022/12/21 04:41:06;;;;;;;20.83;14.68;;;8.80;99.90;;;;;;5072324;28;20557;-64
2022/12/21 04:43:37;;;;;;;22.35;17.15;;;8.90;99.90;;;;;;5071079;28;20200;-64
2022/12/21 04:46:06;;;;;;;23.27;14.93;;;8.90;99.90;;;;;;5055502;28;20219;-64
2022/12/21 04:48:35;;;;;;;23.23;15.52;;;8.90;99.90;;;;;;5055192;28;20258;-64
2022/12/21 04:51:06;;;;;;;19.38;15.65;;;8.90;99.90;;;;;;5054800;28;20693;-64
2022/12/21 04:53:34;;;;;;;23.08;17.15;;;8.90;99.90;;;;;;5054891;28;20185;-64
2022/12/21 04:56:03;;;;;;;20.90;15.77;;;8.90;99.90;;;;;;5060434;28;20720;-64
2022/12/21 04:58:31;;;;;;;27.55;17.27;;;8.90;99.90;;;;;;5074706;28;20232;-64
2022/12/21 05:01:01;;;;;;;26.33;16.70;;;9.00;99.90;;;;;;5074374;28;20188;-64
2022/12/21 05:03:31;;;;;;;23.27;16.60;;;8.90;99.90;;;;;;5073031;28;20247;-64
2022/12/21 05:05:59;;;;;;;25.63;16.85;;;8.90;99.90;;;;;;5075066;28;20214;-64
2022/12/21 05:08:30;;;;;;;24.05;15.65;;;8.90;99.90;;;;;;5074689;28;20208;-64
2022/12/21 05:11:07;;;;;;;27.98;16.08;;;8.90;99.90;;;;;;5074918;28;20548;-64
2022/12/21 05:13:35;;;;;;;28.30;17.70;;;9.00;99.90;;;;;;5074399;28;20636;-64
2022/12/21 05:16:04;;;;;;;20.02;15.75;;;9.00;99.90;;;;;;5074720;28;20547;-64
2022/12/21 05:18:32;;;;;;;22.08;16.17;;;9.00;99.90;;;;;;5074358;28;20662;-64
2022/12/21 05:21:00;;;;;;;24.08;15.93;;;8.90;99.90;;;;;;5074729;28;20665;-64
2022/12/21 05:23:29;;;;;;;24.42;16.13;;;9.00;99.90;;;;;;5074826;28;20228;-64
2022/12/21 05:25:57;;;;;;;22.00;16.63;;;8.90;99.90;;;;;;5074353;28;20246;-64
2022/12/21 05:28:25;;;;;;;25.58;17.20;;;9.00;99.90;;;;;;5074386;28;20576;-65
2022/12/21 05:30:53;;;;;;;29.02;18.13;;;8.90;99.90;;;;;;5074829;28;20218;-65
2022/12/21 05:33:21;;;;;;;24.23;17.05;;;9.00;99.90;;;;;;5061785;28;20273;-64
2022/12/21 05:35:50;;;;;;;26.35;16.90;;;9.00;99.90;;;;;;5055379;28;20212;-64
2022/12/21 05:38:18;;;;;;;24.95;16.90;;;8.90;99.90;;;;;;5054849;28;20258;-64
2022/12/21 05:40:51;;;;;;;23.98;17.20;;;9.00;99.90;;;;;;5058951;28;20199;-64
2022/12/21 05:43:19;;;;;;;26.67;17.65;;;8.90;99.90;;;;;;5074636;28;20203;-64
2022/12/21 05:45:48;;;;;;;26.50;17.00;;;8.90;99.90;;;;;;5073537;28;20198;-63
2022/12/21 05:48:16;;;;;;;26.17;17.85;;;8.90;99.90;;;;;;5067342;28;20201;-63
2022/12/21 05:50:44;;;;;;;37.70;18.58;;;8.90;99.90;;;;;;5064640;28;20200;-64
2022/12/21 05:53:12;;;;;;;24.23;16.42;;;8.90;99.90;;;;;;5065088;28;20195;-64
2022/12/21 05:55:43;;;;;;;28.63;19.13;;;8.90;99.90;;;;;;5069338;28;20211;-64
2022/12/21 05:58:12;;;;;;;26.33;18.23;;;8.90;99.90;;;;;;5052902;28;20208;-64
2022/12/21 06:00:40;;;;;;;23.95;17.50;;;8.90;99.90;;;;;;5052843;28;20659;-64
2022/12/21 06:03:09;;;;;;;30.08;19.10;;;8.90;99.90;;;;;;5051502;28;20265;-63
2022/12/21 06:05:38;;;;;;;25.42;18.05;;;8.90;99.90;;;;;;5053865;28;20732;-63
2022/12/21 06:08:06;;;;;;;29.45;18.30;;;8.90;99.90;;;;;;5053153;28;20589;-64
2022/12/21 06:10:36;;;;;;;30.15;19.05;;;8.90;99.90;;;;;;5055038;28;20209;-64
2022/12/21 06:13:04;;;;;;;30.42;19.27;;;8.90;99.90;;;;;;5064965;28;20212;-63
2022/12/21 06:15:33;;;;;;;30.95;19.75;;;8.90;99.90;;;;;;5060663;28;20564;-64
2022/12/21 06:18:01;;;;;;;28.92;18.90;;;8.90;99.90;;;;;;5072640;28;20585;-65
2022/12/21 06:20:29;;;;;;;27.70;20.98;;;8.90;99.90;;;;;;5069159;28;20196;-65
2022/12/21 06:22:57;;;;;;;35.85;20.50;;;8.90;99.90;;;;;;5053161;28;20580;-65
2022/12/21 06:25:25;;;;;;;27.75;20.45;;;8.90;99.90;;;;;;5055418;28;20201;-64
2022/12/21 06:27:53;;;;;;;32.13;25.83;;;8.90;99.90;;;;;;5057558;28;20204;-64
2022/12/21 06:30:21;;;;;;;32.22;22.38;;;8.90;99.90;;;;;;5064527;28;20231;-64
2022/12/21 06:32:50;;;;;;;31.98;22.23;;;9.00;99.90;;;;;;5054587;28;20209;-64
2022/12/21 06:35:18;;;;;;;33.60;21.65;;;9.00;99.90;;;;;;5068836;28;20645;-64
2022/12/21 06:37:46;;;;;;;27.20;20.50;;;8.90;99.90;;;;;;5058979;28;20209;-65
2022/12/21 06:40:14;;;;;;;29.20;20.85;;;9.00;99.90;;;;;;5057484;28;20261;-64
2022/12/21 06:42:42;;;;;;;29.92;21.02;;;9.00;99.90;;;;;;5055023;28;20556;-64
2022/12/21 06:45:11;;;;;;;30.23;26.10;;;9.00;99.90;;;;;;5058670;28;20763;-64
2022/12/21 06:47:38;;;;;;;27.35;18.67;;;9.00;99.90;;;;;;5058640;28;20546;-64
2022/12/21 06:50:09;;;;;;;27.73;21.58;;;9.00;99.90;;;;;;5053369;28;20494;-64
2022/12/21 06:52:37;;;;;;;29.88;19.40;;;9.10;99.90;;;;;;5059456;28;20191;-64
2022/12/21 06:55:06;;;;;;;25.38;19.13;;;9.10;99.90;;;;;;5053736;28;20208;-63
2022/12/21 06:57:34;;;;;;;23.02;16.05;;;9.10;99.90;;;;;;5071624;28;20220;-62
2022/12/21 07:00:02;;;;;;;26.05;17.10;;;9.10;99.90;;;;;;5068725;28;20247;-63
2022/12/21 07:02:30;;;;;;;22.70;15.95;;;9.10;99.90;;;;;;5069766;28;20210;-64
2022/12/21 07:04:58;;;;;;;27.92;18.27;;;9.10;99.90;;;;;;5050134;28;20257;-63
2022/12/21 07:07:28;;;;;;;23.08;18.00;;;9.10;99.90;;;;;;5050781;28;20200;-63
2022/12/21 07:09:56;;;;;;;32.92;15.75;;;9.10;99.90;;;;;;5052472;28;20659;-65
2022/12/21 07:12:23;;;;;;;23.83;17.70;;;9.10;99.90;;;;;;5051686;28;20557;-63
2022/12/21 07:14:51;;;;;;;20.55;15.75;;;9.10;99.90;;;;;;5056546;28;20215;-63
2022/12/21 07:17:19;;;;;;;25.88;15.35;;;9.20;99.90;;;;;;5072355;28;20203;-64
2022/12/21 07:19:47;;;;;;;23.83;17.10;;;9.20;99.90;;;;;;5067816;28;20227;-63
2022/12/21 07:22:15;;;;;;;23.02;15.50;;;9.20;99.90;;;;;;5056422;28;20219;-63
2022/12/21 07:24:44;;;;;;;24.67;16.42;;;9.20;99.90;;;;;;5070015;28;20569;-63
2022/12/21 07:27:12;;;;;;;18.77;14.88;;;9.20;99.90;;;;;;5061453;28;20204;-63
2022/12/21 07:29:40;;;;;;;21.85;15.38;;;9.30;99.90;;;;;;5066759;28;20200;-63
2022/12/21 07:32:08;;;;;;;21.92;15.50;;;9.20;99.90;;;;;;5070945;28;20215;-63
2022/12/21 07:34:36;;;;;;;22.08;16.65;;;9.20;99.90;;;;;;5052235;28;20200;-63
2022/12/21 07:37:04;;;;;;;21.85;15.50;;;9.20;99.90;;;;;;5059819;28;20199;-63
2022/12/21 07:39:32;;;;;;;23.13;16.20;;;9.20;99.90;;;;;;5058041;28;20222;-63
2022/12/21 07:42:01;;;;;;;21.65;16.17;;;9.30;99.90;;;;;;5067646;28;20199;-64
2022/12/21 07:44:29;;;;;;;20.90;15.57;;;9.20;99.90;;;;;;5060557;28;20200;-65
2022/12/21 07:47:12;;;;;;;18.10;14.90;;;9.20;99.90;;;;;;5056750;28;20200;-64
2022/12/21 07:49:40;;;;;;;21.25;15.20;;;9.20;99.90;;;;;;5065644;28;20192;-64
2022/12/21 07:52:07;;;;;;;21.23;15.90;;;9.30;99.90;;;;;;5072159;28;20222;-64
2022/12/21 07:54:36;;;;;;;22.50;16.38;;;9.30;99.90;;;;;;5052121;28;20211;-64
2022/12/21 07:57:05;;;;;;;23.70;14.40;;;9.30;99.90;;;;;;5052158;28;20211;-64
2022/12/21 07:59:33;;;;;;;21.33;14.60;;;9.30;99.90;;;;;;5054692;28;20234;-64
2022/12/21 08:02:01;;;;;;;21.65;15.90;;;9.30;99.90;;;;;;5055065;28;20212;-65
2022/12/21 08:04:29;;;;;;;23.23;16.67;;;9.30;99.90;;;;;;5055476;28;20655;-65
2022/12/21 08:06:57;;;;;;;22.63;15.15;;;9.30;99.90;;;;;;5057834;28;20208;-64
2022/12/21 08:09:25;;;;;;;20.25;14.85;;;9.40;99.90;;;;;;5070693;28;20206;-63
2022/12/21 08:11:53;;;;;;;19.92;15.93;;;9.30;99.90;;;;;;5062342;28;20215;-63
2022/12/21 08:14:23;;;;;;;20.95;14.80;;;9.30;99.90;;;;;;5051408;28;20204;-64
2022/12/21 08:16:51;;;;;;;22.90;17.10;;;9.30;99.90;;;;;;5051651;28;20204;-64
2022/12/21 08:19:19;;;;;;;23.27;17.17;;;9.40;99.90;;;;;;5059977;28;20227;-65
2022/12/21 08:21:47;;;;;;;23.60;15.45;;;9.40;99.90;;;;;;5065007;28;20211;-64
2022/12/21 08:24:15;;;;;;;20.95;15.80;;;9.40;99.90;;;;;;5054381;28;20572;-63
2022/12/21 08:26:43;;;;;;;23.70;16.30;;;9.40;99.90;;;;;;5068675;28;20204;-64
2022/12/21 08:29:14;;;;;;;23.55;16.27;;;9.40;99.90;;;;;;5071297;28;20200;-64
2022/12/21 08:31:43;;;;;;;27.63;16.17;;;9.40;99.90;;;;;;5055850;28;20697;-65
2022/12/21 08:34:11;;;;;;;28.27;15.48;;;9.40;99.90;;;;;;5056918;28;20207;-64
2022/12/21 08:36:40;;;;;;;25.23;16.40;;;9.40;99.90;;;;;;5064613;28;20202;-64
2022/12/21 08:39:08;;;;;;;25.02;15.05;;;9.40;99.90;;;;;;5063552;28;20211;-64
2022/12/21 08:41:36;;;;;;;19.38;14.55;;;9.40;99.90;;;;;;5074061;28;20637;-64
2022/12/21 08:44:04;;;;;;;20.80;14.43;;;9.40;99.90;;;;;;5059776;28;20203;-65
2022/12/21 08:46:32;;;;;;;23.65;16.45;;;9.40;99.90;;;;;;5073435;28;20204;-64
2022/12/21 08:49:02;;;;;;;18.95;14.40;;;9.40;99.90;;;;;;5056412;28;20674;-65
2022/12/21 08:51:30;;;;;;;20.13;14.77;;;9.40;99.90;;;;;;5055620;28;20405;-65
2022/12/21 08:53:58;;;;;;;20.38;15.43;;;9.40;99.90;;;;;;5072944;28;20200;-65
2022/12/21 08:56:26;;;;;;;20.52;15.95;;;9.40;99.90;;;;;;5073373;28;20540;-65
2022/12/21 08:58:54;;;;;;;23.90;14.85;;;9.40;99.90;;;;;;5073587;28;20231;-65
2022/12/21 09:01:23;;;;;;;24.05;15.00;;;9.50;99.90;;;;;;5066707;28;20196;-65
2022/12/21 09:03:51;;;;;;;24.00;15.25;;;9.50;99.90;;;;;;5037433;28;20193;-65
2022/12/21 09:06:21;;;;;;;15.85;13.35;;;9.50;99.90;;;;;;5060403;28;20199;-65
2022/12/21 09:08:49;;;;;;;22.55;14.32;;;9.50;99.90;;;;;;5073806;28;20578;-65
2022/12/21 09:11:19;;;;;;;18.73;13.40;;;9.50;99.90;;;;;;5065233;28;20203;-64
2022/12/21 09:13:47;;;;;;;17.08;13.48;;;9.50;99.90;;;;;;5053650;28;20192;-64
2022/12/21 09:16:18;;;;;;;27.25;14.40;;;9.50;99.90;;;;;;5054858;28;20212;-66
2022/12/21 09:18:46;;;;;;;17.45;12.82;;;9.50;99.90;;;;;;5059312;28;20220;-65
2022/12/21 09:21:16;;;;;;;17.35;13.00;;;9.40;99.90;;;;;;5054872;28;20722;-65
2022/12/21 09:23:45;;;;;;;17.15;13.07;;;9.50;99.90;;;;;;5053376;28;20233;-65
2022/12/21 09:26:14;;;;;;;20.63;13.65;;;9.50;99.90;;;;;;5064594;28;20202;-65
2022/12/21 09:28:42;;;;;;;18.65;12.18;;;9.50;99.90;;;;;;5057833;28;20211;-65
2022/12/21 09:31:11;;;;;;;17.00;12.45;;;9.50;99.90;;;;;;5064375;28;20200;-66
2022/12/21 09:33:40;;;;;;;16.65;12.90;;;9.50;99.90;;;;;;5065917;28;20196;-66
2022/12/21 09:36:10;;;;;;;16.83;12.75;;;9.50;99.90;;;;;;5055284;28;20208;-66
2022/12/21 09:38:38;;;;;;;11.20;9.98;;;9.50;99.90;;;;;;5055343;28;20220;-65
2022/12/21 09:41:32;;;;;;;14.52;12.18;;;9.50;99.90;;;;;;5066383;28;20196;-65
2022/12/21 09:44:14;;;;;;;19.60;12.75;;;9.50;99.90;;;;;;5067738;28;20715;-65
2022/12/21 09:46:43;;;;;;;13.93;12.00;;;9.50;99.90;;;;;;5066278;28;20191;-65
2022/12/21 09:49:17;;;;;;;16.67;11.00;;;9.60;99.90;;;;;;5070857;28;20199;-65
2022/12/21 09:51:53;;;;;;;16.08;10.85;;;9.60;99.90;;;;;;5057098;28;20197;-63
2022/12/21 09:54:28;;;;;;;16.73;11.68;;;9.70;99.90;;;;;;5068836;28;20655;-64
2022/12/21 09:56:57;;;;;;;16.55;11.80;;;9.70;99.90;;;;;;5063492;28;20197;-64
2022/12/21 09:59:25;;;;;;;16.38;10.80;;;9.70;99.90;;;;;;5053141;28;20239;-65
2022/12/21 10:02:01;;;;;;;12.65;11.00;;;9.70;99.90;;;;;;5054334;28;20431;-65
2022/12/21 10:04:42;;;;;;;12.40;10.93;;;9.70;99.90;;;;;;5053812;28;20201;-65
2022/12/21 10:07:33;;;;;;;12.60;9.35;;;9.80;99.90;;;;;;5053408;28;20674;-64
2022/12/21 10:10:14;;;;;;;15.20;11.40;;;9.80;99.90;;;;;;5059809;28;20211;-65
2022/12/21 10:12:55;;;;;;;11.20;9.73;;;9.80;99.90;;;;;;5064090;28;20185;-65
2022/12/21 10:15:31;;;;;;;17.20;10.35;;;9.90;99.90;;;;;;5053585;28;20226;-65
2022/12/21 10:18:09;;;;;;;11.48;8.57;;;10.00;99.90;;;;;;5062618;28;20188;-65
2022/12/21 10:20:48;;;;;;;16.05;10.23;;;10.00;99.90;;;;;;5073333;28;20214;-64
2022/12/21 10:23:21;;;;;;;15.98;10.02;;;10.10;99.90;;;;;;5067797;28;20216;-65
2022/12/21 10:25:55;;;;;;;14.10;10.00;;;10.10;99.90;;;;;;5053612;28;20207;-64
2022/12/21 10:28:35;;;;;;;13.30;9.15;;;10.10;99.90;;;;;;5053430;28;20207;-65
2022/12/21 10:31:05;;;;;;;9.50;7.85;;;10.10;99.90;;;;;;5052215;28;20672;-64
2022/12/21 10:33:38;;;;;;;12.52;8.88;;;10.10;99.90;;;;;;5066317;28;20531;-64
2022/12/21 10:36:12;;;;;;;12.90;8.70;;;10.10;99.90;;;;;;5054224;28;20215;-65
2022/12/21 10:38:40;;;;;;;9.15;8.05;;;10.10;99.90;;;;;;5059724;28;20642;-64
2022/12/21 10:41:14;;;;;;;10.27;9.25;;;10.20;99.90;;;;;;5056751;28;20281;-64
2022/12/21 10:43:47;;;;;;;10.30;7.80;;;10.20;99.90;;;;;;5052525;28;20189;-65
2022/12/21 10:46:17;;;;;;;8.77;7.88;;;10.20;99.90;;;;;;5072079;28;20196;-65
2022/12/21 10:48:46;;;;;;;11.90;7.35;;;10.20;99.90;;;;;;5070751;28;20681;-65
2022/12/21 10:51:22;;;;;;;8.77;7.25;;;10.20;99.90;;;;;;5071720;28;20200;-65
2022/12/21 10:53:59;;;;;;;12.07;7.97;;;10.30;99.90;;;;;;5069779;28;20192;-65
2022/12/21 10:56:29;;;;;;;9.27;6.93;;;10.30;99.90;;;;;;5053265;28;20214;-62
2022/12/21 10:59:06;;;;;;;9.40;6.43;;;10.40;99.90;;;;;;5052932;28;20228;-64
2022/12/21 11:01:34;;;;;;;9.77;6.68;;;10.50;99.90;;;;;;5051312;28;20180;-64
2022/12/21 11:04:11;;;;;;;8.32;7.43;;;10.50;99.90;;;;;;5052356;28;20200;-65
2022/12/21 11:06:39;;;;;;;6.68;6.07;;;10.50;99.90;;;;;;5061858;28;20252;-65
2022/12/21 11:09:29;;;;;;;6.97;6.32;;;10.50;99.90;;;;;;5052532;28;20206;-64
2022/12/21 11:11:56;;;;;;;12.30;6.43;;;10.50;99.90;;;;;;5055699;28;20218;-64
2022/12/21 11:14:27;;;;;;;8.20;6.68;;;10.50;99.90;;;;;;5057576;28;20211;-64
2022/12/21 11:17:01;;;;;;;12.70;6.28;;;10.60;99.90;;;;;;5068714;28;20200;-64
2022/12/21 11:19:35;;;;;;;7.30;6.60;;;10.70;99.90;;;;;;5055902;28;20211;-62
2022/12/21 11:22:08;;;;;;;10.45;5.55;;;10.80;99.90;;;;;;5061965;28;20234;-62
2022/12/21 11:24:40;;;;;;;5.95;5.45;;;10.80;99.90;;;;;;5056737;28;20188;-64
2022/12/21 11:27:21;;;;;;;5.45;4.97;;;10.80;99.90;;;;;;5053300;28;20214;-65
2022/12/21 11:29:54;;;;;;;6.47;5.35;;;10.80;99.90;;;;;;5051741;28;20496;-65
2022/12/21 11:32:23;;;;;;;11.50;6.07;;;10.80;99.90;;;;;;5050915;28;20192;-63
2022/12/21 11:34:53;;;;;;;12.35;6.68;;;10.80;99.90;;;;;;5051832;28;20230;-65
2022/12/21 11:37:27;;;;;;;7.05;5.63;;;10.90;99.90;;;;;;5056157;28;20215;-64
2022/12/21 11:39:58;;;;;;;7.20;5.15;;;10.90;99.90;;;;;;5061909;28;20207;-65
2022/12/21 11:42:27;;;;;;;5.90;5.40;;;10.90;99.90;;;;;;5058434;28;20206;-64
2022/12/21 11:45:19;;;;;;;6.50;5.80;;;11.00;99.90;;;;;;5057640;28;20195;-64
2022/12/21 11:47:56;;;;;;;7.75;5.00;;;11.00;99.90;;;;;;5060219;28;20205;-66
2022/12/21 11:50:32;;;;;;;9.40;5.63;;;11.00;99.90;;;;;;5057900;28;20531;-67
2022/12/21 11:53:26;;;;;;;7.95;5.20;;;11.00;99.90;;;;;;5065071;28;20268;-66
2022/12/21 11:56:05;;;;;;;6.78;5.90;;;11.00;99.90;;;;;;5056205;28;20266;-65
2022/12/21 11:58:51;;;;;;;6.93;5.90;;;11.10;99.90;;;;;;5058899;28;20227;-66
2022/12/21 12:01:28;;;;;;;5.55;5.15;;;11.00;99.90;;;;;;5051343;28;20220;-66
2022/12/21 12:04:08;;;;;;;5.32;4.93;;;11.00;99.90;;;;;;5048716;28;20199;-66
2022/12/21 12:06:56;;;;;;;5.57;4.97;;;11.00;99.90;;;;;;5048748;28;20192;-66
2022/12/21 12:09:49;;;;;;;5.47;4.97;;;11.00;99.90;;;;;;5058668;28;20205;-66
2022/12/21 12:12:28;;;;;;;6.00;5.50;;;11.00;99.90;;;;;;5049254;28;20218;-66
2022/12/21 12:15:13;;;;;;;7.63;5.63;;;11.00;99.90;;;;;;5063330;28;20200;-65
2022/12/21 12:17:55;;;;;;;11.18;6.13;;;11.20;99.90;;;;;;5054322;28;20214;-66
2022/12/21 12:20:40;;;;;;;8.77;4.93;;;11.30;99.90;;;;;;5056634;28;20742;-66
2022/12/21 12:23:12;;;;;;;5.25;4.75;;;11.40;99.90;;;;;;5063063;28;20566;-67
2022/12/21 12:25:51;;;;;;;5.38;4.82;;;11.50;99.90;;;;;;5058838;28;20188;-67
2022/12/21 12:28:37;;;;;;;6.27;4.53;;;11.90;99.90;;;;;;5055423;28;20197;-67
2022/12/21 12:31:17;;;;;;;5.67;3.77;;;12.20;99.90;;;;;;5053555;28;20574;-65
2022/12/21 12:34:07;;;;;;;3.53;3.23;;;12.60;99.90;;;;;;5054042;28;20581;-66
2022/12/21 12:36:47;;;;;;;6.00;3.87;;;12.60;99.90;;;;;;5054531;28;20612;-66
2022/12/21 12:39:24;;;;;;;3.87;3.57;;;12.20;99.90;;;;;;5060996;28;20635;-66
2022/12/21 12:42:00;;;;;;;4.03;3.80;;;11.90;99.90;;;;;;5063109;28;20621;-66
2022/12/21 12:44:41;;;;;;;6.32;4.15;;;11.80;99.90;;;;;;5065665;28;20962;-66
2022/12/21 12:47:19;;;;;;;4.60;3.70;;;11.80;99.90;;;;;;5064013;28;20564;-66
2022/12/21 12:50:04;;;;;;;4.25;3.92;;;11.70;99.90;;;;;;5074738;28;20557;-66
2022/12/21 12:52:47;;;;;;;5.32;4.05;;;11.60;99.90;;;;;;5063680;28;20603;-66
2022/12/21 12:55:22;;;;;;;4.63;4.23;;;11.60;99.90;;;;;;5075214;28;20190;-66
2022/12/21 12:58:02;;;;;;;4.32;3.60;;;11.60;99.90;;;;;;5066030;28;20640;-66
2022/12/21 13:00:38;;;;;;;4.83;4.03;;;11.60;99.90;;;;;;5064832;28;20689;-66
2022/12/21 13:03:15;;;;;;;4.63;3.60;;;11.70;99.90;;;;;;5062312;28;20638;-67
2022/12/21 13:05:52;;;;;;;3.47;3.17;;;12.10;99.90;;;;;;5062405;28;20614;-67
2022/12/21 13:08:33;;;;;;;4.37;3.60;;;12.10;99.90;;;;;;5061655;28;20621;-67
2022/12/21 13:11:06;;;;;;;3.83;3.40;;;11.90;99.90;;;;;;5064302;28;20579;-66
2022/12/21 13:13:43;;;;;;;4.97;4.27;;;11.90;99.90;;;;;;5064543;28;20692;-67